sensor_id;sensor_type;location;lat;lon;timestamp;P1;durP1;ratioP1;P2;durP2;ratioP2
69220;SDS011;56331;51.992;20.910;2022-09-23T00:00:39;2.60;;;1.80;;
69220;SDS011;56331;51.992;20.910;2022-09-23T00:03:13;3.17;;;2.05;;
69220;SDS011;56331;51.992;20.910;2022-09-23T00:05:45;3.05;;;2.20;;
69220;SDS011;56331;51.992;20.910;2022-09-23T00:08:10;2.20;;;1.60;;
69220;SDS011;56331;51.992;20.910;2022-09-23T00:10:37;2.90;;;1.67;;
69220;SDS011;56331;51.992;20.910;2022-09-23T00:13:05;2.95;;;1.95;;
69220;SDS011;56331;51.992;20.910;2022-09-23T00:15:36;2.22;;;1.65;;
69220;SDS011;56331;51.992;20.910;2022-09-23T00:18:03;3.40;;;1.77;;
69220;SDS011;56331;51.992;20.910;2022-09-23T00:20:31;2.42;;;1.70;;
69220;SDS011;56331;51.992;20.910;2022-09-23T00:22:58;3.15;;;1.87;;
69220;SDS011;56331;51.992;20.910;2022-09-23T00:25:25;3.20;;;2.02;;
69220;SDS011;56331;51.992;20.910;2022-09-23T00:27:53;3.05;;;1.87;;
69220;SDS011;56331;51.992;20.910;2022-09-23T00:30:20;2.60;;;1.80;;
69220;SDS011;56331;51.992;20.910;2022-09-23T00:32:48;2.77;;;1.70;;
69220;SDS011;56331;51.992;20.910;2022-09-23T00:35:14;2.92;;;1.67;;
69220;SDS011;56331;51.992;20.910;2022-09-23T00:37:41;4.20;;;1.82;;
69220;SDS011;56331;51.992;20.910;2022-09-23T00:40:07;2.55;;;1.80;;
69220;SDS011;56331;51.992;20.910;2022-09-23T00:42:35;3.37;;;1.90;;
69220;SDS011;56331;51.992;20.910;2022-09-23T00:45:01;2.27;;;1.75;;
69220;SDS011;56331;51.992;20.910;2022-09-23T00:50:21;2.95;;;1.90;;
69220;SDS011;56331;51.992;20.910;2022-09-23T00:52:53;3.47;;;1.70;;
69220;SDS011;56331;51.992;20.910;2022-09-23T00:55:26;3.00;;;1.82;;
69220;SDS011;56331;51.992;20.910;2022-09-23T00:57:56;3.33;;;1.42;;
69220;SDS011;56331;51.992;20.910;2022-09-23T01:00:24;2.75;;;1.70;;
69220;SDS011;56331;51.992;20.910;2022-09-23T01:02:51;2.85;;;1.72;;
69220;SDS011;56331;51.992;20.910;2022-09-23T01:05:17;2.92;;;1.70;;
69220;SDS011;56331;51.992;20.910;2022-09-23T01:07:44;2.72;;;1.60;;
69220;SDS011;56331;51.992;20.910;2022-09-23T01:10:12;3.25;;;1.87;;
69220;SDS011;56331;51.992;20.910;2022-09-23T01:15:35;3.65;;;1.82;;
69220;SDS011;56331;51.992;20.910;2022-09-23T01:20:57;2.60;;;1.80;;
69220;SDS011;56331;51.992;20.910;2022-09-23T01:34:35;1.87;;;1.40;;
69220;SDS011;56331;51.992;20.910;2022-09-23T01:39:33;2.17;;;1.50;;
69220;SDS011;56331;51.992;20.910;2022-09-23T01:44:54;2.10;;;1.62;;
69220;SDS011;56331;51.992;20.910;2022-09-23T01:47:33;3.55;;;1.77;;
69220;SDS011;56331;51.992;20.910;2022-09-23T01:52:43;2.02;;;1.40;;
69220;SDS011;56331;51.992;20.910;2022-09-23T01:55:12;2.08;;;1.37;;
69220;SDS011;56331;51.992;20.910;2022-09-23T01:57:49;2.40;;;1.35;;
69220;SDS011;56331;51.992;20.910;2022-09-23T02:00:17;2.17;;;1.50;;
69220;SDS011;56331;51.992;20.910;2022-09-23T02:05:23;2.40;;;1.70;;
69220;SDS011;56331;51.992;20.910;2022-09-23T02:08:01;2.33;;;1.62;;
69220;SDS011;56331;51.992;20.910;2022-09-23T02:10:34;2.20;;;1.40;;
69220;SDS011;56331;51.992;20.910;2022-09-23T02:13:02;2.70;;;1.60;;
69220;SDS011;56331;51.992;20.910;2022-09-23T02:18:14;1.80;;;1.40;;
69220;SDS011;56331;51.992;20.910;2022-09-23T02:20:53;2.30;;;1.40;;
69220;SDS011;56331;51.992;20.910;2022-09-23T02:25:59;2.25;;;1.57;;
69220;SDS011;56331;51.992;20.910;2022-09-23T02:31:10;2.22;;;1.57;;
69220;SDS011;56331;51.992;20.910;2022-09-23T02:33:50;2.15;;;1.60;;
69220;SDS011;56331;51.992;20.910;2022-09-23T02:36:29;4.00;;;1.50;;
69220;SDS011;56331;51.992;20.910;2022-09-23T02:39:00;2.95;;;1.50;;
69220;SDS011;56331;51.992;20.910;2022-09-23T02:46:38;2.60;;;1.80;;
69220;SDS011;56331;51.992;20.910;2022-09-23T02:49:18;2.10;;;1.60;;
69220;SDS011;56331;51.992;20.910;2022-09-23T02:51:49;2.47;;;1.60;;
69220;SDS011;56331;51.992;20.910;2022-09-23T02:54:23;1.87;;;1.42;;
69220;SDS011;56331;51.992;20.910;2022-09-23T02:56:52;2.65;;;1.57;;
69220;SDS011;56331;51.992;20.910;2022-09-23T02:59:19;1.82;;;1.32;;
69220;SDS011;56331;51.992;20.910;2022-09-23T03:10:03;1.70;;;1.27;;
69220;SDS011;56331;51.992;20.910;2022-09-23T03:15:24;1.65;;;1.30;;
69220;SDS011;56331;51.992;20.910;2022-09-23T03:20:32;2.05;;;1.25;;
69220;SDS011;56331;51.992;20.910;2022-09-23T03:25:29;1.40;;;1.30;;
69220;SDS011;56331;51.992;20.910;2022-09-23T03:27:58;1.65;;;1.37;;
69220;SDS011;56331;51.992;20.910;2022-09-23T03:30:26;1.90;;;1.40;;
69220;SDS011;56331;51.992;20.910;2022-09-23T03:32:54;1.98;;;1.47;;
69220;SDS011;56331;51.992;20.910;2022-09-23T03:35:24;2.33;;;1.60;;
69220;SDS011;56331;51.992;20.910;2022-09-23T03:37:56;1.72;;;1.40;;
69220;SDS011;56331;51.992;20.910;2022-09-23T03:42:55;3.12;;;1.50;;
69220;SDS011;56331;51.992;20.910;2022-09-23T03:45:25;2.70;;;1.60;;
69220;SDS011;56331;51.992;20.910;2022-09-23T03:50:19;1.90;;;1.30;;
69220;SDS011;56331;51.992;20.910;2022-09-23T03:52:46;2.10;;;1.50;;
69220;SDS011;56331;51.992;20.910;2022-09-23T03:55:14;1.52;;;1.00;;
69220;SDS011;56331;51.992;20.910;2022-09-23T03:57:42;1.70;;;1.40;;
69220;SDS011;56331;51.992;20.910;2022-09-23T04:03:04;2.05;;;1.32;;
69220;SDS011;56331;51.992;20.910;2022-09-23T04:05:30;2.00;;;1.50;;
69220;SDS011;56331;51.992;20.910;2022-09-23T04:07:56;1.87;;;1.37;;
69220;SDS011;56331;51.992;20.910;2022-09-23T04:10:23;2.15;;;1.42;;
69220;SDS011;56331;51.992;20.910;2022-09-23T04:12:49;1.85;;;1.35;;
69220;SDS011;56331;51.992;20.910;2022-09-23T04:15:15;1.55;;;1.30;;
69220;SDS011;56331;51.992;20.910;2022-09-23T04:17:42;1.50;;;1.30;;
69220;SDS011;56331;51.992;20.910;2022-09-23T04:20:08;1.55;;;1.22;;
69220;SDS011;56331;51.992;20.910;2022-09-23T04:22:35;2.00;;;1.30;;
69220;SDS011;56331;51.992;20.910;2022-09-23T04:25:02;1.90;;;1.32;;
69220;SDS011;56331;51.992;20.910;2022-09-23T04:27:29;1.75;;;1.15;;
69220;SDS011;56331;51.992;20.910;2022-09-23T04:29:55;1.45;;;1.10;;
69220;SDS011;56331;51.992;20.910;2022-09-23T04:32:21;1.90;;;1.20;;
69220;SDS011;56331;51.992;20.910;2022-09-23T04:34:49;2.47;;;1.45;;
69220;SDS011;56331;51.992;20.910;2022-09-23T04:37:16;1.77;;;1.30;;
69220;SDS011;56331;51.992;20.910;2022-09-23T04:39:42;1.50;;;1.27;;
69220;SDS011;56331;51.992;20.910;2022-09-23T04:42:09;1.27;;;1.17;;
69220;SDS011;56331;51.992;20.910;2022-09-23T04:44:36;2.08;;;1.30;;
69220;SDS011;56331;51.992;20.910;2022-09-23T04:47:03;1.80;;;1.30;;
69220;SDS011;56331;51.992;20.910;2022-09-23T04:49:30;3.10;;;1.35;;
69220;SDS011;56331;51.992;20.910;2022-09-23T04:51:58;3.35;;;1.05;;
69220;SDS011;56331;51.992;20.910;2022-09-23T04:54:24;1.62;;;1.12;;
69220;SDS011;56331;51.992;20.910;2022-09-23T04:56:50;2.42;;;1.25;;
69220;SDS011;56331;51.992;20.910;2022-09-23T04:59:19;2.27;;;1.20;;
69220;SDS011;56331;51.992;20.910;2022-09-23T05:01:46;1.30;;;1.10;;
69220;SDS011;56331;51.992;20.910;2022-09-23T05:04:12;2.87;;;1.40;;
69220;SDS011;56331;51.992;20.910;2022-09-23T05:06:38;2.50;;;1.35;;
69220;SDS011;56331;51.992;20.910;2022-09-23T05:09:07;2.85;;;1.62;;
69220;SDS011;56331;51.992;20.910;2022-09-23T05:11:33;4.15;;;1.27;;
69220;SDS011;56331;51.992;20.910;2022-09-23T05:14:00;1.60;;;1.35;;
69220;SDS011;56331;51.992;20.910;2022-09-23T05:16:26;2.33;;;1.50;;
69220;SDS011;56331;51.992;20.910;2022-09-23T05:18:53;4.03;;;1.50;;
69220;SDS011;56331;51.992;20.910;2022-09-23T05:21:20;3.10;;;1.50;;
69220;SDS011;56331;51.992;20.910;2022-09-23T05:23:52;3.75;;;1.57;;
69220;SDS011;56331;51.992;20.910;2022-09-23T05:26:22;1.62;;;1.15;;
69220;SDS011;56331;51.992;20.910;2022-09-23T05:28:50;2.67;;;1.47;;
69220;SDS011;56331;51.992;20.910;2022-09-23T05:31:17;1.80;;;1.20;;
69220;SDS011;56331;51.992;20.910;2022-09-23T05:33:45;2.95;;;1.57;;
69220;SDS011;56331;51.992;20.910;2022-09-23T05:36:14;2.55;;;1.40;;
69220;SDS011;56331;51.992;20.910;2022-09-23T05:38:42;2.75;;;1.42;;
69220;SDS011;56331;51.992;20.910;2022-09-23T05:41:12;2.67;;;1.27;;
69220;SDS011;56331;51.992;20.910;2022-09-23T05:43:38;1.95;;;1.30;;
69220;SDS011;56331;51.992;20.910;2022-09-23T05:46:15;1.77;;;1.30;;
69220;SDS011;56331;51.992;20.910;2022-09-23T05:48:43;2.10;;;1.42;;
69220;SDS011;56331;51.992;20.910;2022-09-23T05:51:12;3.17;;;1.50;;
69220;SDS011;56331;51.992;20.910;2022-09-23T05:53:41;3.35;;;1.92;;
69220;SDS011;56331;51.992;20.910;2022-09-23T05:56:14;2.62;;;2.05;;
69220;SDS011;56331;51.992;20.910;2022-09-23T05:58:43;2.17;;;1.65;;
69220;SDS011;56331;51.992;20.910;2022-09-23T06:01:18;1.90;;;1.67;;
69220;SDS011;56331;51.992;20.910;2022-09-23T06:03:52;2.30;;;1.60;;
69220;SDS011;56331;51.992;20.910;2022-09-23T06:06:22;2.98;;;1.60;;
69220;SDS011;56331;51.992;20.910;2022-09-23T06:08:56;2.83;;;1.65;;
69220;SDS011;56331;51.992;20.910;2022-09-23T06:11:26;3.22;;;1.80;;
69220;SDS011;56331;51.992;20.910;2022-09-23T06:13:57;1.80;;;1.45;;
69220;SDS011;56331;51.992;20.910;2022-09-23T06:16:29;3.65;;;1.80;;
69220;SDS011;56331;51.992;20.910;2022-09-23T06:18:56;1.85;;;1.50;;
69220;SDS011;56331;51.992;20.910;2022-09-23T06:21:25;2.00;;;1.40;;
69220;SDS011;56331;51.992;20.910;2022-09-23T06:23:51;1.75;;;1.27;;
69220;SDS011;56331;51.992;20.910;2022-09-23T06:26:17;2.70;;;1.45;;
69220;SDS011;56331;51.992;20.910;2022-09-23T06:28:44;2.90;;;1.10;;
69220;SDS011;56331;51.992;20.910;2022-09-23T06:31:11;2.75;;;1.42;;
69220;SDS011;56331;51.992;20.910;2022-09-23T06:33:40;1.30;;;1.17;;
69220;SDS011;56331;51.992;20.910;2022-09-23T06:36:08;1.87;;;1.42;;
69220;SDS011;56331;51.992;20.910;2022-09-23T06:38:39;2.77;;;1.35;;
69220;SDS011;56331;51.992;20.910;2022-09-23T06:41:07;1.80;;;1.40;;
69220;SDS011;56331;51.992;20.910;2022-09-23T06:43:33;1.27;;;1.17;;
69220;SDS011;56331;51.992;20.910;2022-09-23T06:46:01;1.82;;;1.15;;
69220;SDS011;56331;51.992;20.910;2022-09-23T06:48:29;1.70;;;1.30;;
69220;SDS011;56331;51.992;20.910;2022-09-23T06:50:59;1.75;;;1.40;;
69220;SDS011;56331;51.992;20.910;2022-09-23T06:53:28;1.85;;;1.47;;
69220;SDS011;56331;51.992;20.910;2022-09-23T06:56:02;2.00;;;1.45;;
69220;SDS011;56331;51.992;20.910;2022-09-23T06:58:33;5.10;;;1.80;;
69220;SDS011;56331;51.992;20.910;2022-09-23T07:01:01;1.45;;;1.30;;
69220;SDS011;56331;51.992;20.910;2022-09-23T07:03:34;1.60;;;1.37;;
69220;SDS011;56331;51.992;20.910;2022-09-23T07:06:01;2.33;;;1.47;;
69220;SDS011;56331;51.992;20.910;2022-09-23T07:08:28;2.33;;;1.55;;
69220;SDS011;56331;51.992;20.910;2022-09-23T07:10:56;1.87;;;1.25;;
69220;SDS011;56331;51.992;20.910;2022-09-23T07:13:24;2.02;;;1.30;;
69220;SDS011;56331;51.992;20.910;2022-09-23T07:15:54;1.80;;;1.50;;
69220;SDS011;56331;51.992;20.910;2022-09-23T07:18:23;1.92;;;1.50;;
69220;SDS011;56331;51.992;20.910;2022-09-23T07:20:51;1.50;;;1.30;;
69220;SDS011;56331;51.992;20.910;2022-09-23T07:23:18;3.02;;;1.60;;
69220;SDS011;56331;51.992;20.910;2022-09-23T07:25:45;2.10;;;1.32;;
69220;SDS011;56331;51.992;20.910;2022-09-23T07:28:17;1.47;;;1.30;;
69220;SDS011;56331;51.992;20.910;2022-09-23T07:30:44;1.60;;;1.50;;
69220;SDS011;56331;51.992;20.910;2022-09-23T07:33:11;2.20;;;1.65;;
69220;SDS011;56331;51.992;20.910;2022-09-23T07:35:38;1.87;;;1.65;;
69220;SDS011;56331;51.992;20.910;2022-09-23T07:38:09;1.90;;;1.42;;
69220;SDS011;56331;51.992;20.910;2022-09-23T07:40:37;1.07;;;0.98;;
69220;SDS011;56331;51.992;20.910;2022-09-23T07:43:07;1.42;;;1.20;;
69220;SDS011;56331;51.992;20.910;2022-09-23T07:45:34;1.57;;;1.30;;
69220;SDS011;56331;51.992;20.910;2022-09-23T07:48:06;1.22;;;1.12;;
69220;SDS011;56331;51.992;20.910;2022-09-23T07:50:33;1.47;;;1.32;;
69220;SDS011;56331;51.992;20.910;2022-09-23T07:52:59;1.80;;;1.45;;
69220;SDS011;56331;51.992;20.910;2022-09-23T07:55:27;1.60;;;0.98;;
69220;SDS011;56331;51.992;20.910;2022-09-23T07:57:53;2.12;;;1.25;;
69220;SDS011;56331;51.992;20.910;2022-09-23T08:00:20;4.60;;;1.40;;
69220;SDS011;56331;51.992;20.910;2022-09-23T08:02:46;1.77;;;1.20;;
69220;SDS011;56331;51.992;20.910;2022-09-23T08:05:13;1.20;;;1.10;;
69220;SDS011;56331;51.992;20.910;2022-09-23T08:07:39;1.30;;;1.02;;
69220;SDS011;56331;51.992;20.910;2022-09-23T08:10:06;1.42;;;1.00;;
69220;SDS011;56331;51.992;20.910;2022-09-23T08:12:33;3.27;;;1.70;;
69220;SDS011;56331;51.992;20.910;2022-09-23T08:14:59;3.52;;;1.25;;
69220;SDS011;56331;51.992;20.910;2022-09-23T08:17:25;1.40;;;1.22;;
69220;SDS011;56331;51.992;20.910;2022-09-23T08:19:52;5.42;;;0.95;;
69220;SDS011;56331;51.992;20.910;2022-09-23T08:22:18;1.52;;;0.82;;
69220;SDS011;56331;51.992;20.910;2022-09-23T08:24:45;2.33;;;1.05;;
69220;SDS011;56331;51.992;20.910;2022-09-23T08:27:11;1.07;;;0.88;;
69220;SDS011;56331;51.992;20.910;2022-09-23T08:29:39;2.85;;;1.20;;
69220;SDS011;56331;51.992;20.910;2022-09-23T08:32:05;1.70;;;1.00;;
69220;SDS011;56331;51.992;20.910;2022-09-23T08:34:31;1.10;;;0.98;;
69220;SDS011;56331;51.992;20.910;2022-09-23T08:36:58;1.20;;;0.80;;
69220;SDS011;56331;51.992;20.910;2022-09-23T08:39:24;1.12;;;0.90;;
69220;SDS011;56331;51.992;20.910;2022-09-23T08:49:35;0.93;;;0.72;;
69220;SDS011;56331;51.992;20.910;2022-09-23T08:52:22;1.17;;;0.90;;
69220;SDS011;56331;51.992;20.910;2022-09-23T08:57:24;1.50;;;1.00;;
69220;SDS011;56331;51.992;20.910;2022-09-23T08:59:48;1.37;;;1.10;;
69220;SDS011;56331;51.992;20.910;2022-09-23T09:02:18;0.95;;;0.82;;
69220;SDS011;56331;51.992;20.910;2022-09-23T09:04:49;0.75;;;0.60;;
69220;SDS011;56331;51.992;20.910;2022-09-23T09:09:46;1.07;;;0.82;;
69220;SDS011;56331;51.992;20.910;2022-09-23T09:12:44;1.60;;;1.02;;
69220;SDS011;56331;51.992;20.910;2022-09-23T09:15:19;1.00;;;0.80;;
69220;SDS011;56331;51.992;20.910;2022-09-23T09:17:52;1.05;;;0.80;;
69220;SDS011;56331;51.992;20.910;2022-09-23T09:25:22;1.27;;;0.75;;
69220;SDS011;56331;51.992;20.910;2022-09-23T09:27:48;3.90;;;0.80;;
69220;SDS011;56331;51.992;20.910;2022-09-23T09:30:16;1.07;;;0.78;;
69220;SDS011;56331;51.992;20.910;2022-09-23T09:33:02;0.60;;;0.60;;
69220;SDS011;56331;51.992;20.910;2022-09-23T09:35:45;0.95;;;0.70;;
69220;SDS011;56331;51.992;20.910;2022-09-23T09:38:15;0.98;;;0.65;;
69220;SDS011;56331;51.992;20.910;2022-09-23T09:40:43;0.88;;;0.70;;
69220;SDS011;56331;51.992;20.910;2022-09-23T09:48:37;1.87;;;0.60;;
69220;SDS011;56331;51.992;20.910;2022-09-23T09:51:16;1.20;;;0.70;;
69220;SDS011;56331;51.992;20.910;2022-09-23T09:53:44;1.10;;;0.75;;
69220;SDS011;56331;51.992;20.910;2022-09-23T09:56:12;1.00;;;0.70;;
69220;SDS011;56331;51.992;20.910;2022-09-23T10:01:32;1.80;;;0.53;;
69220;SDS011;56331;51.992;20.910;2022-09-23T10:03:51;0.98;;;0.60;;
69220;SDS011;56331;51.992;20.910;2022-09-23T10:06:26;0.50;;;0.50;;
69220;SDS011;56331;51.992;20.910;2022-09-23T10:11:32;1.20;;;0.60;;
69220;SDS011;56331;51.992;20.910;2022-09-23T10:16:32;2.85;;;0.75;;
69220;SDS011;56331;51.992;20.910;2022-09-23T10:18:59;1.55;;;0.82;;
69220;SDS011;56331;51.992;20.910;2022-09-23T10:21:31;1.17;;;0.75;;
69220;SDS011;56331;51.992;20.910;2022-09-23T10:24:01;1.50;;;0.70;;
69220;SDS011;56331;51.992;20.910;2022-09-23T10:26:37;0.98;;;0.80;;
69220;SDS011;56331;51.992;20.910;2022-09-23T10:29:01;0.55;;;0.55;;
69220;SDS011;56331;51.992;20.910;2022-09-23T10:31:31;0.67;;;0.50;;
69220;SDS011;56331;51.992;20.910;2022-09-23T10:36:52;0.60;;;0.50;;
69220;SDS011;56331;51.992;20.910;2022-09-23T10:39:21;0.60;;;0.50;;
69220;SDS011;56331;51.992;20.910;2022-09-23T10:42:09;2.08;;;0.50;;
69220;SDS011;56331;51.992;20.910;2022-09-23T10:44:57;1.60;;;0.93;;
69220;SDS011;56331;51.992;20.910;2022-09-23T11:01:32;2.00;;;0.98;;
69220;SDS011;56331;51.992;20.910;2022-09-23T11:09:42;1.70;;;0.90;;
69220;SDS011;56331;51.992;20.910;2022-09-23T11:15:10;1.82;;;0.80;;
69220;SDS011;56331;51.992;20.910;2022-09-23T11:20:26;1.52;;;1.20;;
69220;SDS011;56331;51.992;20.910;2022-09-23T11:26:09;1.82;;;1.20;;
69220;SDS011;56331;51.992;20.910;2022-09-23T11:37:29;5.33;;;1.60;;
69220;SDS011;56331;51.992;20.910;2022-09-23T11:42:35;1.82;;;0.82;;
69220;SDS011;56331;51.992;20.910;2022-09-23T11:47:38;1.35;;;1.02;;
69220;SDS011;56331;51.992;20.910;2022-09-23T11:53:04;1.70;;;0.88;;
69220;SDS011;56331;51.992;20.910;2022-09-23T11:55:48;1.40;;;0.93;;
69220;SDS011;56331;51.992;20.910;2022-09-23T11:58:18;2.95;;;0.78;;
69220;SDS011;56331;51.992;20.910;2022-09-23T12:06:06;1.27;;;0.80;;
69220;SDS011;56331;51.992;20.910;2022-09-23T12:08:46;2.17;;;0.78;;
69220;SDS011;56331;51.992;20.910;2022-09-23T12:14:14;1.37;;;0.80;;
69220;SDS011;56331;51.992;20.910;2022-09-23T12:19:48;2.80;;;0.80;;
69220;SDS011;56331;51.992;20.910;2022-09-23T12:28:16;0.93;;;0.80;;
69220;SDS011;56331;51.992;20.910;2022-09-23T12:30:48;1.92;;;0.90;;
69220;SDS011;56331;51.992;20.910;2022-09-23T12:33:20;1.40;;;0.90;;
69220;SDS011;56331;51.992;20.910;2022-09-23T12:35:50;1.67;;;0.90;;
69220;SDS011;56331;51.992;20.910;2022-09-23T12:38:20;2.17;;;0.72;;
69220;SDS011;56331;51.992;20.910;2022-09-23T12:40:52;1.02;;;0.65;;
69220;SDS011;56331;51.992;20.910;2022-09-23T12:43:30;1.37;;;0.85;;
69220;SDS011;56331;51.992;20.910;2022-09-23T12:51:26;3.22;;;1.10;;
69220;SDS011;56331;51.992;20.910;2022-09-23T12:53:58;1.30;;;0.70;;
69220;SDS011;56331;51.992;20.910;2022-09-23T13:05:08;1.77;;;0.70;;
69220;SDS011;56331;51.992;20.910;2022-09-23T13:08:15;1.40;;;0.80;;
69220;SDS011;56331;51.992;20.910;2022-09-23T13:10:53;1.15;;;0.72;;
69220;SDS011;56331;51.992;20.910;2022-09-23T13:13:40;2.92;;;0.90;;
69220;SDS011;56331;51.992;20.910;2022-09-23T13:16:21;1.52;;;0.80;;
69220;SDS011;56331;51.992;20.910;2022-09-23T13:24:16;1.87;;;0.60;;
69220;SDS011;56331;51.992;20.910;2022-09-23T13:26:52;3.47;;;0.60;;
69220;SDS011;56331;51.992;20.910;2022-09-23T13:29:25;0.60;;;0.60;;
69220;SDS011;56331;51.992;20.910;2022-09-23T13:31:56;4.28;;;0.85;;
69220;SDS011;56331;51.992;20.910;2022-09-23T13:34:23;1.00;;;0.70;;
69220;SDS011;56331;51.992;20.910;2022-09-23T13:36:52;2.67;;;0.75;;
69220;SDS011;56331;51.992;20.910;2022-09-23T13:39:22;2.85;;;0.68;;
69220;SDS011;56331;51.992;20.910;2022-09-23T13:41:55;3.27;;;0.82;;
69220;SDS011;56331;51.992;20.910;2022-09-23T13:44:19;0.90;;;0.53;;
69220;SDS011;56331;51.992;20.910;2022-09-23T13:46:48;1.80;;;0.90;;
69220;SDS011;56331;51.992;20.910;2022-09-23T13:49:24;0.85;;;0.70;;
69220;SDS011;56331;51.992;20.910;2022-09-23T13:52:01;2.62;;;0.80;;
69220;SDS011;56331;51.992;20.910;2022-09-23T13:54:29;2.27;;;1.10;;
69220;SDS011;56331;51.992;20.910;2022-09-23T13:57:00;2.22;;;1.00;;
69220;SDS011;56331;51.992;20.910;2022-09-23T13:59:35;3.05;;;0.70;;
69220;SDS011;56331;51.992;20.910;2022-09-23T14:02:04;1.37;;;0.70;;
69220;SDS011;56331;51.992;20.910;2022-09-23T14:04:32;3.85;;;0.85;;
69220;SDS011;56331;51.992;20.910;2022-09-23T14:06:59;2.02;;;0.75;;
69220;SDS011;56331;51.992;20.910;2022-09-23T14:09:26;2.22;;;0.98;;
69220;SDS011;56331;51.992;20.910;2022-09-23T14:11:55;2.25;;;1.10;;
69220;SDS011;56331;51.992;20.910;2022-09-23T14:14:24;1.45;;;0.75;;
69220;SDS011;56331;51.992;20.910;2022-09-23T14:16:52;4.28;;;1.10;;
69220;SDS011;56331;51.992;20.910;2022-09-23T14:19:21;1.07;;;0.68;;
69220;SDS011;56331;51.992;20.910;2022-09-23T14:21:49;3.80;;;0.90;;
69220;SDS011;56331;51.992;20.910;2022-09-23T14:27:14;1.25;;;0.80;;
69220;SDS011;56331;51.992;20.910;2022-09-23T14:29:45;1.12;;;0.72;;
69220;SDS011;56331;51.992;20.910;2022-09-23T14:32:20;4.28;;;0.68;;
69220;SDS011;56331;51.992;20.910;2022-09-23T14:40:24;1.75;;;0.70;;
69220;SDS011;56331;51.992;20.910;2022-09-23T14:42:57;1.25;;;0.70;;
69220;SDS011;56331;51.992;20.910;2022-09-23T14:45:30;1.57;;;0.85;;
69220;SDS011;56331;51.992;20.910;2022-09-23T14:48:05;1.00;;;0.70;;
69220;SDS011;56331;51.992;20.910;2022-09-23T14:50:43;1.17;;;0.57;;
69220;SDS011;56331;51.992;20.910;2022-09-23T14:55:51;1.50;;;0.70;;
69220;SDS011;56331;51.992;20.910;2022-09-23T14:58:22;1.30;;;0.68;;
69220;SDS011;56331;51.992;20.910;2022-09-23T15:00:53;3.55;;;0.60;;
69220;SDS011;56331;51.992;20.910;2022-09-23T15:03:20;11.38;;;1.95;;
69220;SDS011;56331;51.992;20.910;2022-09-23T15:05:47;28.15;;;4.20;;
69220;SDS011;56331;51.992;20.910;2022-09-23T15:08:17;50.50;;;6.83;;
69220;SDS011;56331;51.992;20.910;2022-09-23T15:10:46;50.45;;;8.28;;
69220;SDS011;56331;51.992;20.910;2022-09-23T15:13:23;37.95;;;6.40;;
69220;SDS011;56331;51.992;20.910;2022-09-23T15:15:46;32.85;;;5.75;;
69220;SDS011;56331;51.992;20.910;2022-09-23T15:18:14;36.08;;;6.00;;
69220;SDS011;56331;51.992;20.910;2022-09-23T15:21:09;27.98;;;5.03;;
69220;SDS011;56331;51.992;20.910;2022-09-23T15:23:45;27.27;;;5.00;;
69220;SDS011;56331;51.992;20.910;2022-09-23T15:26:14;24.35;;;4.53;;
69220;SDS011;56331;51.992;20.910;2022-09-23T15:28:46;23.20;;;4.25;;
69220;SDS011;56331;51.992;20.910;2022-09-23T15:31:13;18.40;;;3.60;;
69220;SDS011;56331;51.992;20.910;2022-09-23T15:33:44;17.07;;;4.05;;
69220;SDS011;56331;51.992;20.910;2022-09-23T15:38:44;28.67;;;3.92;;
69220;SDS011;56331;51.992;20.910;2022-09-23T15:41:12;22.07;;;3.98;;
69220;SDS011;56331;51.992;20.910;2022-09-23T15:43:39;14.90;;;3.33;;
69220;SDS011;56331;51.992;20.910;2022-09-23T15:46:20;12.82;;;3.30;;
69220;SDS011;56331;51.992;20.910;2022-09-23T15:48:48;13.88;;;3.27;;
69220;SDS011;56331;51.992;20.910;2022-09-23T15:51:21;11.43;;;3.52;;
69220;SDS011;56331;51.992;20.910;2022-09-23T15:53:48;14.00;;;3.65;;
69220;SDS011;56331;51.992;20.910;2022-09-23T15:56:15;15.15;;;3.30;;
69220;SDS011;56331;51.992;20.910;2022-09-23T15:58:42;16.97;;;3.20;;
69220;SDS011;56331;51.992;20.910;2022-09-23T16:01:10;16.15;;;3.98;;
69220;SDS011;56331;51.992;20.910;2022-09-23T16:03:38;15.13;;;3.47;;
69220;SDS011;56331;51.992;20.910;2022-09-23T16:06:08;9.10;;;3.12;;
69220;SDS011;56331;51.992;20.910;2022-09-23T16:11:01;9.68;;;3.12;;
69220;SDS011;56331;51.992;20.910;2022-09-23T16:13:27;10.15;;;2.80;;
69220;SDS011;56331;51.992;20.910;2022-09-23T16:15:53;10.80;;;2.80;;
69220;SDS011;56331;51.992;20.910;2022-09-23T16:18:21;8.13;;;2.92;;
69220;SDS011;56331;51.992;20.910;2022-09-23T16:20:47;11.43;;;3.08;;
69220;SDS011;56331;51.992;20.910;2022-09-23T16:26:01;14.93;;;2.65;;
69220;SDS011;56331;51.992;20.910;2022-09-23T16:28:29;13.10;;;3.00;;
69220;SDS011;56331;51.992;20.910;2022-09-23T16:30:55;10.90;;;3.08;;
69220;SDS011;56331;51.992;20.910;2022-09-23T16:33:21;7.00;;;2.60;;
69220;SDS011;56331;51.992;20.910;2022-09-23T16:35:47;7.87;;;2.20;;
69220;SDS011;56331;51.992;20.910;2022-09-23T16:38:15;9.43;;;2.42;;
69220;SDS011;56331;51.992;20.910;2022-09-23T16:40:41;11.10;;;2.40;;
69220;SDS011;56331;51.992;20.910;2022-09-23T16:43:09;8.73;;;2.77;;
69220;SDS011;56331;51.992;20.910;2022-09-23T16:45:35;6.25;;;2.67;;
69220;SDS011;56331;51.992;20.910;2022-09-23T16:48:03;13.00;;;3.22;;
69220;SDS011;56331;51.992;20.910;2022-09-23T16:50:30;12.35;;;2.80;;
69220;SDS011;56331;51.992;20.910;2022-09-23T16:52:56;10.08;;;2.42;;
69220;SDS011;56331;51.992;20.910;2022-09-23T16:55:24;8.18;;;2.30;;
69220;SDS011;56331;51.992;20.910;2022-09-23T16:57:53;9.13;;;2.17;;
69220;SDS011;56331;51.992;20.910;2022-09-23T17:00:20;7.78;;;2.50;;
69220;SDS011;56331;51.992;20.910;2022-09-23T17:03:05;7.17;;;1.98;;
69220;SDS011;56331;51.992;20.910;2022-09-23T17:05:50;9.88;;;2.27;;
69220;SDS011;56331;51.992;20.910;2022-09-23T17:08:16;7.08;;;2.05;;
69220;SDS011;56331;51.992;20.910;2022-09-23T17:10:43;8.28;;;2.75;;
69220;SDS011;56331;51.992;20.910;2022-09-23T17:13:12;10.70;;;2.80;;
69220;SDS011;56331;51.992;20.910;2022-09-23T17:15:44;5.28;;;2.15;;
69220;SDS011;56331;51.992;20.910;2022-09-23T17:18:10;7.65;;;2.17;;
69220;SDS011;56331;51.992;20.910;2022-09-23T17:20:36;7.47;;;2.25;;
69220;SDS011;56331;51.992;20.910;2022-09-23T17:23:03;7.03;;;2.17;;
69220;SDS011;56331;51.992;20.910;2022-09-23T17:25:30;5.60;;;2.00;;
69220;SDS011;56331;51.992;20.910;2022-09-23T17:27:58;3.50;;;1.67;;
69220;SDS011;56331;51.992;20.910;2022-09-23T17:30:25;6.87;;;2.08;;
69220;SDS011;56331;51.992;20.910;2022-09-23T17:32:53;5.72;;;2.08;;
69220;SDS011;56331;51.992;20.910;2022-09-23T17:35:19;4.05;;;2.10;;
69220;SDS011;56331;51.992;20.910;2022-09-23T17:37:45;4.40;;;1.98;;
69220;SDS011;56331;51.992;20.910;2022-09-23T17:40:12;7.70;;;2.47;;
69220;SDS011;56331;51.992;20.910;2022-09-23T17:42:39;4.20;;;2.10;;
69220;SDS011;56331;51.992;20.910;2022-09-23T17:45:09;5.50;;;2.55;;
69220;SDS011;56331;51.992;20.910;2022-09-23T17:47:37;4.50;;;2.40;;
69220;SDS011;56331;51.992;20.910;2022-09-23T17:50:03;7.25;;;2.75;;
69220;SDS011;56331;51.992;20.910;2022-09-23T17:52:31;4.15;;;2.33;;
69220;SDS011;56331;51.992;20.910;2022-09-23T17:54:58;8.30;;;2.92;;
69220;SDS011;56331;51.992;20.910;2022-09-23T17:57:25;7.37;;;3.08;;
69220;SDS011;56331;51.992;20.910;2022-09-23T17:59:51;4.42;;;2.50;;
69220;SDS011;56331;51.992;20.910;2022-09-23T18:02:18;4.83;;;2.60;;
69220;SDS011;56331;51.992;20.910;2022-09-23T18:04:46;5.75;;;3.05;;
69220;SDS011;56331;51.992;20.910;2022-09-23T18:07:14;5.85;;;2.65;;
69220;SDS011;56331;51.992;20.910;2022-09-23T18:09:40;6.20;;;2.77;;